createdAt,value
2018-03-30T00:01:48.630Z,4.42
2018-03-30T00:04:14.995Z,4.20
2018-03-30T00:06:41.406Z,4.17
2018-03-30T00:09:07.927Z,4.18
2018-03-30T00:11:34.354Z,4.20
2018-03-30T00:14:00.677Z,4.37
2018-03-30T00:16:27.034Z,4.64
2018-03-30T00:18:53.405Z,4.42
2018-03-30T00:21:19.834Z,4.83
2018-03-30T00:23:46.212Z,4.86
2018-03-30T00:26:12.620Z,4.41
2018-03-30T00:28:38.949Z,4.12
2018-03-30T00:31:05.429Z,4.04
2018-03-30T00:33:31.848Z,4.28
2018-03-30T00:35:58.198Z,3.82
2018-03-30T00:38:24.660Z,3.68
2018-03-30T00:40:51.077Z,3.56
2018-03-30T00:43:17.592Z,3.40
2018-03-30T00:45:44.033Z,3.35
2018-03-30T00:48:10.391Z,3.61
2018-03-30T00:50:36.796Z,3.42
2018-03-30T00:53:03.222Z,3.20
2018-03-30T00:55:29.572Z,2.90
2018-03-30T00:57:55.949Z,2.64
2018-03-30T01:00:22.364Z,2.58
2018-03-30T01:02:48.768Z,2.45
2018-03-30T01:05:15.091Z,2.39
2018-03-30T01:07:41.460Z,3.07
2018-03-30T01:10:08.567Z,2.95
2018-03-30T01:12:35.052Z,2.66
2018-03-30T01:15:01.588Z,2.52
2018-03-30T01:17:27.915Z,2.37
2018-03-30T01:19:54.265Z,2.42
2018-03-30T01:22:20.799Z,2.71
2018-03-30T01:24:47.124Z,2.85
2018-03-30T01:27:13.505Z,3.29
2018-03-30T01:29:39.959Z,3.24
2018-03-30T01:32:06.309Z,3.19
2018-03-30T01:34:32.638Z,3.16
2018-03-30T01:36:59.064Z,2.79
2018-03-30T01:39:26.219Z,3.05
2018-03-30T01:41:52.788Z,3.04
2018-03-30T01:44:19.180Z,2.68
2018-03-30T01:46:45.566Z,2.48
2018-03-30T01:49:11.966Z,2.20
2018-03-30T01:51:38.486Z,1.93
2018-03-30T01:54:04.888Z,1.82
2018-03-30T01:56:31.252Z,1.77
2018-03-30T01:58:57.600Z,1.63
2018-03-30T02:01:24.028Z,1.77
2018-03-30T02:03:50.387Z,1.84
2018-03-30T02:06:16.858Z,1.94
2018-03-30T02:08:43.239Z,2.11
2018-03-30T02:11:09.585Z,2.14
2018-03-30T02:13:36.403Z,2.15
2018-03-30T02:16:02.853Z,2.07
2018-03-30T02:18:30.131Z,2.13
2018-03-30T02:20:56.556Z,2.13
2018-03-30T02:23:22.993Z,2.30
2018-03-30T02:25:49.344Z,2.29
2018-03-30T02:28:15.777Z,2.24
2018-03-30T02:30:42.127Z,2.09
2018-03-30T02:33:08.620Z,1.94
2018-03-30T02:35:35.017Z,1.83
2018-03-30T02:38:01.377Z,1.87
2018-03-30T02:40:27.808Z,1.84
2018-03-30T02:42:54.266Z,1.90
2018-03-30T02:45:20.579Z,1.83
2018-03-30T02:47:46.902Z,1.81
2018-03-30T02:50:13.288Z,2.03
2018-03-30T02:52:39.718Z,1.82
2018-03-30T02:55:06.137Z,1.95
2018-03-30T02:57:32.597Z,1.88
2018-03-30T02:59:58.918Z,1.88
2018-03-30T03:02:25.302Z,1.79
2018-03-30T03:04:51.802Z,1.80
2018-03-30T03:07:18.254Z,1.72
2018-03-30T03:09:44.725Z,1.64
2018-03-30T03:12:11.157Z,1.88
2018-03-30T03:14:37.520Z,2.03
2018-03-30T03:17:03.939Z,1.79
2018-03-30T03:19:30.296Z,1.63
2018-03-30T03:21:56.823Z,1.65
2018-03-30T03:24:23.262Z,1.65
2018-03-30T03:26:49.661Z,1.87
2018-03-30T03:29:16.024Z,1.90
2018-03-30T03:31:42.633Z,1.84
2018-03-30T03:34:09.007Z,1.94
2018-03-30T03:36:35.605Z,1.79
2018-03-30T03:39:02.231Z,1.60
2018-03-30T03:41:28.636Z,1.52
2018-03-30T03:43:54.975Z,1.44
2018-03-30T03:46:21.381Z,1.37
2018-03-30T03:48:47.774Z,1.34
2018-03-30T03:51:14.182Z,1.30
2018-03-30T03:53:40.516Z,1.32
2018-03-30T03:56:06.909Z,1.22
2018-03-30T03:58:33.247Z,1.14
2018-03-30T04:00:59.580Z,1.08
2018-03-30T04:03:26.164Z,1.07
2018-03-30T04:05:52.507Z,1.08
2018-03-30T04:08:18.907Z,1.18
2018-03-30T04:10:45.340Z,1.30
2018-03-30T04:13:11.716Z,1.59
2018-03-30T04:15:38.093Z,1.91
2018-03-30T04:18:04.509Z,1.75
2018-03-30T04:20:31.377Z,1.66
2018-03-30T04:22:58.274Z,1.66
2018-03-30T04:25:25.418Z,1.47
2018-03-30T04:27:52.255Z,1.42
2018-03-30T04:30:19.433Z,1.61
2018-03-30T04:32:45.970Z,1.51
2018-03-30T04:35:12.366Z,1.50
2018-03-30T04:37:38.734Z,1.55
2018-03-30T04:40:05.095Z,1.50
2018-03-30T04:42:31.684Z,1.59
2018-03-30T04:44:58.108Z,1.78
2018-03-30T04:47:24.501Z,2.55
2018-03-30T04:49:50.936Z,4.33
2018-03-30T04:52:17.406Z,5.81
2018-03-30T04:54:43.795Z,7.00
2018-03-30T04:57:10.182Z,7.73
2018-03-30T04:59:36.569Z,8.10
2018-03-30T05:02:02.995Z,8.58
2018-03-30T05:04:29.461Z,9.05
2018-03-30T05:06:56.243Z,9.62
2018-03-30T05:09:22.655Z,9.83
2018-03-30T05:11:49.126Z,9.89
2018-03-30T05:14:15.507Z,10.38
2018-03-30T05:16:41.962Z,10.43
2018-03-30T05:19:08.505Z,10.30
2018-03-30T05:21:35.233Z,10.53
2018-03-30T05:24:01.724Z,10.91
2018-03-30T05:26:28.795Z,11.23
2018-03-30T05:28:57.076Z,11.40
2018-03-30T05:31:23.779Z,11.81
2018-03-30T05:33:50.243Z,11.55
2018-03-30T05:36:16.697Z,10.74
2018-03-30T05:38:43.337Z,10.06
2018-03-30T05:41:09.799Z,9.44
2018-03-30T05:43:36.243Z,9.09
2018-03-30T05:46:02.679Z,9.71
2018-03-30T05:48:29.400Z,10.15
2018-03-30T05:50:55.909Z,10.20
2018-03-30T05:53:25.075Z,10.34
2018-03-30T05:55:53.181Z,9.90
2018-03-30T05:58:19.821Z,10.28
2018-03-30T06:00:46.238Z,9.51
2018-03-30T06:03:12.820Z,9.80
2018-03-30T06:05:39.305Z,9.75
2018-03-30T06:08:05.804Z,10.14
2018-03-30T06:10:32.303Z,9.85
2018-03-30T06:12:58.870Z,9.77
2018-03-30T06:15:25.620Z,9.93
2018-03-30T06:17:52.035Z,9.95
2018-03-30T06:20:18.434Z,9.73
2018-03-30T06:22:44.985Z,10.00
2018-03-30T06:25:11.428Z,9.72
2018-03-30T06:27:38.292Z,9.52
2018-03-30T06:30:04.725Z,9.37
2018-03-30T06:32:31.217Z,9.46
2018-03-30T06:34:57.715Z,9.63
2018-03-30T06:37:24.215Z,9.38
2018-03-30T06:39:50.614Z,9.54
2018-03-30T06:42:17.131Z,9.71
2018-03-30T06:44:43.581Z,10.63
2018-03-30T06:47:10.041Z,10.44
2018-03-30T06:49:36.471Z,10.02
2018-03-30T06:52:02.938Z,10.41
2018-03-30T06:54:29.304Z,10.30
2018-03-30T06:56:55.809Z,10.07
2018-03-30T06:59:22.194Z,10.48
2018-03-30T07:01:48.551Z,11.12
2018-03-30T07:04:15.013Z,11.03
2018-03-30T07:06:41.459Z,10.98
2018-03-30T07:09:08.149Z,11.03
2018-03-30T07:11:34.557Z,10.82
2018-03-30T07:14:00.935Z,10.55
2018-03-30T07:16:27.444Z,10.57
2018-03-30T07:18:53.974Z,10.91
2018-03-30T07:21:20.424Z,10.82
2018-03-30T07:23:46.921Z,10.85
2018-03-30T07:26:13.312Z,11.26
2018-03-30T07:28:39.711Z,11.31
2018-03-30T07:31:06.288Z,11.66
2018-03-30T07:33:32.826Z,11.65
2018-03-30T07:35:59.372Z,11.47
2018-03-30T07:38:26.024Z,11.44
2018-03-30T07:40:52.705Z,11.80
2018-03-30T07:43:20.052Z,11.93
2018-03-30T07:45:46.529Z,11.76
2018-03-30T07:48:13.294Z,12.20
2018-03-30T07:50:39.805Z,12.40
2018-03-30T07:53:06.294Z,12.76
2018-03-30T07:55:32.985Z,12.90
2018-03-30T07:58:00.534Z,13.09
2018-03-30T08:00:27.108Z,13.41
2018-03-30T08:02:53.872Z,13.94
2018-03-30T08:05:20.362Z,14.67
2018-03-30T08:07:46.996Z,14.80
2018-03-30T08:10:13.507Z,14.86
2018-03-30T08:12:40.357Z,15.41
2018-03-30T08:15:07.051Z,15.67
2018-03-30T08:17:33.672Z,16.23
2018-03-30T08:20:00.405Z,16.27
2018-03-30T08:22:27.612Z,16.59
2018-03-30T08:24:54.188Z,16.33
2018-03-30T08:27:20.666Z,15.70
2018-03-30T08:29:47.161Z,15.40
2018-03-30T08:32:13.984Z,15.51
2018-03-30T08:34:40.772Z,16.15
2018-03-30T08:37:07.441Z,16.36
2018-03-30T08:39:34.192Z,16.92
2018-03-30T08:42:00.974Z,17.11
2018-03-30T08:44:27.388Z,17.20
2018-03-30T08:46:53.840Z,17.00
2018-03-30T08:49:20.253Z,17.15
2018-03-30T08:51:46.629Z,17.62
2018-03-30T08:54:13.118Z,17.81
2018-03-30T08:56:39.519Z,17.50
2018-03-30T08:59:05.949Z,17.77
2018-03-30T09:01:32.578Z,17.92
2018-03-30T09:03:58.992Z,18.56
2018-03-30T09:06:25.657Z,18.48
2018-03-30T09:08:52.693Z,18.33
2018-03-30T09:11:20.268Z,18.20
2018-03-30T09:13:48.568Z,18.05
2018-03-30T09:16:18.616Z,18.32
2018-03-30T09:18:45.669Z,18.04
2018-03-30T09:21:12.196Z,18.08
2018-03-30T09:23:38.685Z,18.34
2018-03-30T09:26:05.075Z,18.20
2018-03-30T09:28:31.511Z,18.25
2018-03-30T09:30:57.978Z,18.59
2018-03-30T09:33:27.343Z,18.46
2018-03-30T09:35:54.731Z,19.15
2018-03-30T09:38:21.284Z,18.97
2018-03-30T09:40:47.902Z,19.04
2018-03-30T09:43:14.304Z,19.27
2018-03-30T09:45:41.040Z,19.57
2018-03-30T09:48:07.529Z,20.59
2018-03-30T09:50:34.144Z,20.15
2018-03-30T09:53:00.717Z,19.77
2018-03-30T09:55:27.394Z,19.96
2018-03-30T09:57:53.940Z,19.87
2018-03-30T10:00:20.603Z,20.28
2018-03-30T10:02:47.161Z,20.54
2018-03-30T10:05:13.556Z,20.35
2018-03-30T10:07:40.066Z,19.23
2018-03-30T10:10:06.411Z,19.10
2018-03-30T10:12:32.923Z,19.43
2018-03-30T10:14:59.433Z,19.58
2018-03-30T10:17:25.899Z,19.45
2018-03-30T10:19:52.588Z,19.48
2018-03-30T10:22:19.169Z,19.92
2018-03-30T10:24:45.811Z,19.52
2018-03-30T10:27:12.193Z,20.47
2018-03-30T10:29:38.687Z,21.13
2018-03-30T10:32:06.698Z,21.32
2018-03-30T10:34:34.114Z,20.94
2018-03-30T10:37:03.153Z,19.85
2018-03-30T10:39:30.354Z,20.59
2018-03-30T10:41:57.122Z,20.74
2018-03-30T10:44:25.464Z,20.23
2018-03-30T10:46:54.052Z,20.46
2018-03-30T10:49:21.001Z,20.41
2018-03-30T10:51:48.840Z,20.74
2018-03-30T10:54:16.522Z,20.95
2018-03-30T10:56:45.789Z,21.18
2018-03-30T10:59:13.699Z,20.47
2018-03-30T11:01:40.747Z,20.56
2018-03-30T11:04:07.323Z,20.74
2018-03-30T11:06:33.899Z,21.21
2018-03-30T11:09:00.354Z,21.32
2018-03-30T11:11:27.299Z,20.55
2018-03-30T11:13:53.906Z,20.25
2018-03-30T11:16:20.869Z,20.93
2018-03-30T11:18:47.429Z,21.37
2018-03-30T11:21:14.118Z,21.51
2018-03-30T11:23:40.786Z,21.45
2018-03-30T11:26:07.299Z,20.29
2018-03-30T11:28:33.793Z,19.72
2018-03-30T11:31:00.441Z,20.13
2018-03-30T11:33:27.169Z,20.54
2018-03-30T11:35:53.867Z,20.63
2018-03-30T11:38:20.341Z,20.69
2018-03-30T11:40:46.964Z,20.85
2018-03-30T11:43:13.549Z,20.72
2018-03-30T11:45:40.058Z,21.09
2018-03-30T11:48:06.563Z,21.07
2018-03-30T11:50:33.208Z,20.58
2018-03-30T11:52:59.792Z,20.24
2018-03-30T11:55:26.411Z,20.05
2018-03-30T11:57:55.046Z,20.27
2018-03-30T12:00:22.103Z,20.09
2018-03-30T12:02:49.112Z,20.53
2018-03-30T12:05:15.853Z,20.64
2018-03-30T12:44:04.606Z,20.43
2018-03-30T12:46:32.184Z,20.34
2018-03-30T12:48:58.901Z,20.52
2018-03-30T12:51:31.797Z,20.49
2018-03-30T12:54:01.644Z,20.27
2018-03-30T12:56:28.958Z,20.06
2018-03-30T12:58:55.697Z,19.82
2018-03-30T13:01:24.262Z,19.83
2018-03-30T13:03:55.248Z,20.13
2018-03-30T13:06:25.359Z,20.17
2018-03-30T13:08:53.688Z,19.68
2018-03-30T13:11:21.921Z,19.57
2018-03-30T13:13:49.427Z,19.78
2018-03-30T13:16:16.706Z,19.76
2018-03-30T13:18:43.981Z,19.82
2018-03-30T13:21:11.239Z,19.90
2018-03-30T13:23:42.256Z,19.80
2018-03-30T13:26:09.884Z,19.71
2018-03-30T13:28:36.757Z,19.97
2018-03-30T13:31:03.671Z,19.73
2018-03-30T13:33:30.444Z,19.96
2018-03-30T13:35:57.132Z,19.87
2018-03-30T13:38:23.926Z,19.90
2018-03-30T13:40:50.903Z,19.39
2018-03-30T13:43:20.779Z,19.15
2018-03-30T13:45:47.511Z,19.62
2018-03-30T13:48:14.170Z,19.74
2018-03-30T13:53:49.925Z,19.19
2018-03-30T13:56:17.644Z,19.08
2018-03-30T13:58:47.287Z,19.04
2018-03-30T14:01:15.882Z,19.00
2018-03-30T14:03:53.670Z,19.00
2018-03-30T14:06:22.161Z,19.10
2018-03-30T14:08:51.591Z,19.29
2018-03-30T14:11:23.895Z,19.19
2018-03-30T14:13:50.546Z,19.34
2018-03-30T14:16:20.951Z,19.43
2018-03-30T14:19:01.107Z,19.39
2018-03-30T14:21:37.446Z,19.20
2018-03-30T14:24:07.367Z,19.06
2018-03-30T14:26:40.140Z,18.87
2018-03-30T14:29:09.679Z,18.89
2018-03-30T14:31:55.703Z,18.73
2018-03-30T14:34:23.695Z,18.75
2018-03-30T14:36:54.364Z,18.57
2018-03-30T14:42:28.278Z,18.22
2018-03-30T14:44:57.060Z,18.20
2018-03-30T14:47:27.467Z,18.11
2018-03-30T14:49:58.652Z,17.91
2018-03-30T14:52:34.128Z,17.70
2018-03-30T14:55:20.707Z,17.71
2018-03-30T14:57:51.270Z,17.95
2018-03-30T15:00:35.421Z,18.01
2018-03-30T15:03:18.605Z,18.05
2018-03-30T15:05:52.743Z,17.90
2018-03-30T15:08:27.904Z,17.90
2018-03-30T15:11:01.607Z,17.71
2018-03-30T15:13:36.307Z,17.56
2018-03-30T15:16:07.723Z,17.43
2018-03-30T15:18:39.269Z,17.34
2018-03-30T15:24:34.340Z,17.08
2018-03-30T15:27:06.753Z,17.02
2018-03-30T15:29:41.812Z,16.95
2018-03-30T15:32:21.069Z,16.85
2018-03-30T15:34:51.706Z,16.78
2018-03-30T15:37:21.888Z,16.70
2018-03-30T15:42:50.336Z,16.44
2018-03-30T15:45:17.282Z,16.35
2018-03-30T15:47:44.182Z,16.29
2018-03-30T15:50:11.131Z,16.24
2018-03-30T15:52:38.052Z,16.09
2018-03-30T15:55:06.274Z,16.05
2018-03-30T15:57:35.449Z,16.02
2018-03-30T16:00:05.320Z,15.88
2018-03-30T16:02:32.180Z,15.89
2018-03-30T16:04:59.000Z,15.89
2018-03-30T16:07:25.700Z,15.86
2018-03-30T16:09:54.351Z,15.81
2018-03-30T16:12:29.127Z,15.67
2018-03-30T16:14:55.895Z,15.62
2018-03-30T16:17:22.733Z,15.56
2018-03-30T16:19:49.680Z,15.47
2018-03-30T16:22:16.254Z,15.38
2018-03-30T16:24:46.226Z,15.22
2018-03-30T16:27:14.601Z,15.23
2018-03-30T16:29:42.578Z,15.12
2018-03-30T16:32:09.022Z,15.10
2018-03-30T16:34:35.625Z,15.04
2018-03-30T16:37:02.307Z,14.90
2018-03-30T16:39:28.901Z,14.84
2018-03-30T16:41:55.437Z,14.70
2018-03-30T16:44:23.616Z,14.62
2018-03-30T16:46:50.626Z,14.60
2018-03-30T16:49:17.314Z,14.50
2018-03-30T16:51:44.366Z,14.29
2018-03-30T16:54:11.324Z,14.15
2018-03-30T16:56:38.295Z,14.34
2018-03-30T16:59:04.948Z,14.28
2018-03-30T17:01:31.366Z,14.26
2018-03-30T17:04:01.814Z,14.13
2018-03-30T17:06:28.414Z,14.00
2018-03-30T17:08:54.981Z,13.98
2018-03-30T17:11:21.757Z,13.90
2018-03-30T17:13:52.450Z,13.89
2018-03-30T17:16:19.080Z,13.84
2018-03-30T17:18:46.192Z,13.78
2018-03-30T17:21:12.967Z,13.81
2018-03-30T17:23:39.610Z,13.55
2018-03-30T17:26:06.256Z,13.56
2018-03-30T17:28:34.174Z,13.60
2018-03-30T17:31:02.542Z,13.59
2018-03-30T17:33:46.947Z,13.68
2018-03-30T17:36:14.205Z,13.69
2018-03-30T17:38:41.332Z,13.75
2018-03-30T17:41:08.462Z,13.67
2018-03-30T17:43:35.314Z,13.61
2018-03-30T17:46:01.782Z,13.70
2018-03-30T17:48:28.516Z,13.65
2018-03-30T17:50:55.053Z,13.70
2018-03-30T17:53:21.584Z,13.75
2018-03-30T17:55:48.081Z,13.73
2018-03-30T17:58:14.813Z,13.77
2018-03-30T18:00:41.388Z,13.75
2018-03-30T18:03:08.405Z,13.69
2018-03-30T18:05:37.152Z,13.66
2018-03-30T18:08:04.198Z,13.71
2018-03-30T18:10:30.998Z,13.65
2018-03-30T18:12:57.824Z,13.54
2018-03-30T18:15:24.359Z,13.41
2018-03-30T18:17:51.160Z,13.31
2018-03-30T18:20:17.698Z,13.32
2018-03-30T18:22:44.800Z,13.41
2018-03-30T18:25:15.188Z,13.36
2018-03-30T18:27:42.288Z,13.30
2018-03-30T18:30:09.137Z,13.15
2018-03-30T18:32:35.738Z,13.09
2018-03-30T18:35:02.356Z,12.96
2018-03-30T18:37:29.346Z,12.94
2018-03-30T18:39:56.949Z,12.95
2018-03-30T18:42:25.412Z,12.89
2018-03-30T18:44:53.175Z,12.89
2018-03-30T18:47:19.921Z,12.81
2018-03-30T18:49:46.892Z,12.78
2018-03-30T18:52:14.140Z,12.84
2018-03-30T18:54:41.007Z,12.86
2018-03-30T18:57:07.647Z,12.86
2018-03-30T18:59:34.528Z,12.75
2018-03-30T19:02:01.971Z,12.72
2018-03-30T19:04:29.848Z,12.74
2018-03-30T19:06:58.540Z,12.63
2018-03-30T19:09:26.330Z,12.56
2018-03-30T19:11:53.080Z,12.62
2018-03-30T19:14:21.229Z,12.57
2018-03-30T19:16:49.116Z,12.62
2018-03-30T19:19:16.308Z,12.59
2018-03-30T19:21:43.253Z,12.62
2018-03-30T19:24:10.019Z,12.52
2018-03-30T19:26:36.764Z,12.50
2018-03-30T19:29:03.459Z,12.46
2018-03-30T19:31:30.640Z,12.60
2018-03-30T19:33:57.362Z,12.39
2018-03-30T19:36:24.099Z,12.42
2018-03-30T19:38:50.582Z,12.54
2018-03-30T19:41:17.445Z,12.38
2018-03-30T19:43:44.094Z,12.24
2018-03-30T19:46:11.876Z,12.13
2018-03-30T19:48:38.915Z,12.14
2018-03-30T19:51:06.062Z,12.07
2018-03-30T19:53:35.281Z,12.14
2018-03-30T19:56:03.043Z,12.22
2018-03-30T19:58:29.779Z,12.04
2018-03-30T20:00:56.338Z,12.14
2018-03-30T20:03:23.815Z,12.36
2018-03-30T20:05:50.526Z,12.26
2018-03-30T20:08:18.848Z,12.19
2018-03-30T20:10:46.076Z,12.11
2018-03-30T20:13:23.919Z,12.33
2018-03-30T20:15:51.659Z,12.26
2018-03-30T20:18:18.526Z,12.13
2018-03-30T20:20:45.543Z,11.88
2018-03-30T20:23:12.622Z,11.95
2018-03-30T20:25:40.430Z,12.06
2018-03-30T20:28:07.101Z,11.98
2018-03-30T20:30:33.552Z,11.96
2018-03-30T20:33:00.346Z,12.12
2018-03-30T20:35:26.951Z,12.09
2018-03-30T20:37:54.217Z,12.11
2018-03-30T20:40:20.932Z,12.11
2018-03-30T20:42:47.350Z,12.10
2018-03-30T20:45:13.829Z,12.06
2018-03-30T20:47:40.226Z,11.93
2018-03-30T20:50:07.082Z,11.76
2018-03-30T20:52:33.817Z,11.65
2018-03-30T20:55:04.379Z,11.79
2018-03-30T20:57:30.809Z,11.74
2018-03-30T20:59:57.280Z,11.81
2018-03-30T21:02:24.718Z,11.78
2018-03-30T21:04:52.512Z,11.61
2018-03-30T21:07:19.091Z,11.79
2018-03-30T21:09:45.797Z,11.77
2018-03-30T21:12:13.093Z,11.95
2018-03-30T21:14:43.475Z,12.03
2018-03-30T21:17:09.980Z,11.83
2018-03-30T21:19:37.037Z,11.86
2018-03-30T21:22:03.944Z,11.70
2018-03-30T21:24:30.464Z,11.69
2018-03-30T21:26:56.899Z,11.72
2018-03-30T21:29:23.346Z,11.80
2018-03-30T21:31:49.740Z,11.79
2018-03-30T21:34:27.076Z,12.08
2018-03-30T21:36:53.809Z,11.99
2018-03-30T21:39:20.658Z,11.93
2018-03-30T21:41:47.050Z,12.00
2018-03-30T21:44:15.560Z,11.95
2018-03-30T21:46:41.850Z,11.84
2018-03-30T21:49:08.247Z,12.04
2018-03-30T21:51:34.439Z,12.01
2018-03-30T21:54:05.331Z,12.00
2018-03-30T21:56:31.508Z,11.81
2018-03-30T21:58:58.119Z,11.73
2018-03-30T22:01:24.463Z,11.71
2018-03-30T22:03:51.815Z,11.71
2018-03-30T22:06:17.998Z,11.78
2018-03-30T22:08:44.131Z,11.58
2018-03-30T22:11:10.222Z,11.42
2018-03-30T22:13:42.144Z,11.43
2018-03-30T22:16:08.264Z,11.39
2018-03-30T22:18:34.438Z,11.39
2018-03-30T22:21:00.916Z,11.31
2018-03-30T22:23:27.076Z,11.30
2018-03-30T22:25:53.200Z,11.27
2018-03-30T22:28:19.380Z,11.35
2018-03-30T22:30:45.505Z,11.45
2018-03-30T22:33:11.611Z,11.46
2018-03-30T22:35:38.842Z,11.58
2018-03-30T22:38:05.038Z,11.57
2018-03-30T22:40:31.165Z,11.58
2018-03-30T22:42:57.290Z,11.55
2018-03-30T22:45:23.593Z,11.45
2018-03-30T22:47:49.739Z,11.47
2018-03-30T22:50:16.149Z,11.49
2018-03-30T22:52:42.553Z,11.43
2018-03-30T22:55:08.743Z,11.46
2018-03-30T22:57:34.926Z,11.46
2018-03-30T23:00:01.014Z,11.44
2018-03-30T23:02:27.216Z,11.47
2018-03-30T23:04:53.367Z,11.40
2018-03-30T23:07:19.442Z,11.35
2018-03-30T23:09:45.524Z,11.23
2018-03-30T23:12:11.719Z,11.35
2018-03-30T23:14:39.943Z,11.24
2018-03-30T23:17:06.103Z,11.30
2018-03-30T23:19:32.266Z,11.23
2018-03-30T23:21:58.355Z,11.23
2018-03-30T23:24:25.575Z,11.17
2018-03-30T23:26:51.732Z,11.15
2018-03-30T23:29:17.948Z,11.14
2018-03-30T23:31:44.101Z,11.15
2018-03-30T23:34:14.091Z,11.11
2018-03-30T23:36:40.233Z,11.07
2018-03-30T23:39:06.390Z,11.07
2018-03-30T23:41:32.550Z,10.92
2018-03-30T23:44:00.770Z,10.86
2018-03-30T23:46:26.965Z,10.81
2018-03-30T23:48:53.124Z,10.79
2018-03-30T23:51:19.234Z,10.79
2018-03-30T23:53:46.354Z,10.75
2018-03-30T23:56:12.494Z,10.70
2018-03-30T23:58:38.607Z,10.75
